createdAt,value
2022-11-29T00:01:38.212Z,19.43
2022-11-29T00:04:08.482Z,19.63
2022-11-29T00:06:37.254Z,20.77
2022-11-29T00:09:09.484Z,20.90
2022-11-29T00:11:56.713Z,19.87
2022-11-29T00:14:26.142Z,20.23
2022-11-29T00:16:56.206Z,20.27
2022-11-29T00:19:26.216Z,20.00
2022-11-29T00:21:54.671Z,20.63
2022-11-29T00:24:23.332Z,22.17
2022-11-29T00:26:51.753Z,21.73
2022-11-29T00:29:20.423Z,21.77
2022-11-29T00:31:48.816Z,22.17
2022-11-29T00:34:17.272Z,34.30
2022-11-29T00:36:47.079Z,25.33
2022-11-29T00:39:16.395Z,23.43
2022-11-29T00:41:44.943Z,21.73
2022-11-29T00:44:19.686Z,22.07
2022-11-29T00:46:48.783Z,22.03
2022-11-29T00:49:17.418Z,22.03
2022-11-29T00:51:47.546Z,22.17
2022-11-29T00:54:16.008Z,23.17
2022-11-29T00:56:44.477Z,23.03
2022-11-29T00:59:12.965Z,20.47
2022-11-29T01:01:41.464Z,21.20
2022-11-29T01:04:10.125Z,21.37
2022-11-29T01:06:38.528Z,21.70
2022-11-29T01:09:08.343Z,19.90
2022-11-29T01:11:36.905Z,20.93
2022-11-29T01:14:05.650Z,19.40
2022-11-29T01:16:34.488Z,20.63
2022-11-29T01:19:03.349Z,20.43
2022-11-29T01:21:32.115Z,20.40
2022-11-29T01:24:01.613Z,19.27
2022-11-29T01:26:32.125Z,20.27
2022-11-29T01:29:00.618Z,19.13
2022-11-29T01:31:30.885Z,19.10
2022-11-29T01:34:01.380Z,21.90
2022-11-29T01:36:30.159Z,20.93
2022-11-29T01:39:01.249Z,20.13
2022-11-29T01:41:32.638Z,20.03
2022-11-29T01:44:03.510Z,20.60
2022-11-29T01:46:34.486Z,21.23
2022-11-29T01:49:06.233Z,20.53
2022-11-29T01:51:36.025Z,20.57
2022-11-29T01:54:05.173Z,19.17
2022-11-29T01:56:36.213Z,19.93
2022-11-29T01:59:07.833Z,19.23
2022-11-29T02:01:36.733Z,19.77
2022-11-29T02:04:06.121Z,19.77
2022-11-29T02:06:34.840Z,20.00
2022-11-29T02:09:03.333Z,19.60
2022-11-29T02:12:00.141Z,19.57
2022-11-29T02:14:41.248Z,19.73
2022-11-29T02:17:17.724Z,19.33
2022-11-29T02:20:13.705Z,18.50
2022-11-29T02:22:48.334Z,18.33
2022-11-29T02:25:29.120Z,18.93
2022-11-29T02:28:30.188Z,18.80
2022-11-29T02:31:11.835Z,19.67
2022-11-29T02:33:59.201Z,20.40
2022-11-29T02:36:52.461Z,18.47
2022-11-29T02:39:44.626Z,18.60
2022-11-29T02:42:54.362Z,19.47
2022-11-29T02:45:37.537Z,19.27
2022-11-29T02:48:17.112Z,19.13
2022-11-29T02:50:53.734Z,18.87
2022-11-29T02:53:28.388Z,19.57
2022-11-29T02:56:00.791Z,18.40
2022-11-29T02:58:35.140Z,19.60
2022-11-29T03:01:10.619Z,19.47
2022-11-29T03:03:42.292Z,18.40
2022-11-29T03:06:18.033Z,20.47
2022-11-29T03:08:52.849Z,19.73
2022-11-29T03:11:28.016Z,20.30
2022-11-29T03:14:05.300Z,20.53
2022-11-29T03:16:43.100Z,20.00
2022-11-29T03:19:30.796Z,19.30
2022-11-29T03:22:10.887Z,20.23
2022-11-29T03:24:44.181Z,20.67
2022-11-29T03:27:14.854Z,20.57
2022-11-29T03:29:49.492Z,20.63
2022-11-29T03:32:21.983Z,20.90
2022-11-29T03:34:57.815Z,20.93
2022-11-29T03:37:31.643Z,20.93
2022-11-29T03:40:04.949Z,20.03
2022-11-29T03:42:37.393Z,20.50
2022-11-29T03:45:09.485Z,21.43
2022-11-29T03:47:43.150Z,23.60
2022-11-29T03:50:15.717Z,22.27
2022-11-29T03:52:50.528Z,22.90
2022-11-29T03:55:33.238Z,22.23
2022-11-29T03:58:19.300Z,27.70
2022-11-29T04:01:03.697Z,23.87
2022-11-29T04:03:58.825Z,22.33
2022-11-29T04:06:38.584Z,22.37
2022-11-29T04:09:28.192Z,21.73
2022-11-29T04:12:28.642Z,20.07
2022-11-29T04:15:15.676Z,21.63
2022-11-29T04:18:12.999Z,21.83
2022-11-29T04:21:02.503Z,22.17
2022-11-29T04:23:58.865Z,25.10
2022-11-29T04:26:45.832Z,39.47
2022-11-29T04:29:21.597Z,35.10
2022-11-29T04:32:04.765Z,35.67
2022-11-29T04:34:58.366Z,26.73
2022-11-29T04:37:45.953Z,24.97
2022-11-29T04:40:27.796Z,23.20
2022-11-29T04:43:07.485Z,25.73
2022-11-29T04:46:13.078Z,23.87
2022-11-29T04:48:55.353Z,25.30
2022-11-29T04:51:38.111Z,24.47
2022-11-29T04:54:12.133Z,24.20
2022-11-29T04:56:44.437Z,27.83
2022-11-29T04:59:20.461Z,32.70
2022-11-29T05:01:59.091Z,31.13
2022-11-29T05:04:33.330Z,27.87
2022-11-29T05:07:04.802Z,25.10
2022-11-29T05:09:42.193Z,30.40
2022-11-29T05:12:15.839Z,32.00
2022-11-29T05:14:56.344Z,28.83
2022-11-29T05:17:32.881Z,24.77
2022-11-29T05:20:23.384Z,25.80
2022-11-29T05:23:05.658Z,44.50
2022-11-29T05:25:41.256Z,60.53
2022-11-29T05:28:12.628Z,63.27
2022-11-29T05:31:06.655Z,53.37
2022-11-29T05:33:49.783Z,34.97
2022-11-29T05:36:26.846Z,27.63
2022-11-29T05:39:06.570Z,24.70
2022-11-29T05:41:51.973Z,22.70
2022-11-29T05:44:25.632Z,22.17
2022-11-29T05:46:56.901Z,22.77
2022-11-29T05:49:34.713Z,22.00
2022-11-29T05:52:22.274Z,22.43
2022-11-29T05:55:00.362Z,25.00
2022-11-29T05:57:35.601Z,23.53
2022-11-29T06:00:05.775Z,26.50
2022-11-29T06:02:44.255Z,29.97
2022-11-29T06:05:17.282Z,28.03
2022-11-29T06:07:51.741Z,24.23
2022-11-29T06:10:22.465Z,23.50
2022-11-29T06:13:00.878Z,21.37
2022-11-29T06:16:08.874Z,22.40
2022-11-29T06:19:13.019Z,21.43
2022-11-29T06:21:45.737Z,22.13
2022-11-29T06:24:27.674Z,23.27
2022-11-29T06:27:12.913Z,23.60
2022-11-29T06:29:45.945Z,24.43
2022-11-29T06:32:22.735Z,23.77
2022-11-29T06:34:59.190Z,29.37
2022-11-29T06:37:31.309Z,28.27
2022-11-29T06:40:00.174Z,26.60
2022-11-29T06:42:28.610Z,25.43
2022-11-29T06:44:57.373Z,25.40
2022-11-29T06:47:30.132Z,27.13
2022-11-29T06:50:06.652Z,28.70
2022-11-29T06:52:41.225Z,25.50
2022-11-29T06:55:18.280Z,28.93
2022-11-29T06:57:57.069Z,28.33
2022-11-29T07:00:28.149Z,25.33
2022-11-29T07:03:07.683Z,23.63
2022-11-29T07:05:38.320Z,23.83
2022-11-29T07:08:10.017Z,33.03
2022-11-29T07:10:40.781Z,26.17
2022-11-29T07:13:11.218Z,24.83
2022-11-29T07:15:40.681Z,24.97
2022-11-29T07:18:18.849Z,22.13
2022-11-29T07:20:56.203Z,21.23
2022-11-29T07:23:31.164Z,20.40
2022-11-29T07:26:10.143Z,22.27
2022-11-29T07:28:47.244Z,24.97
2022-11-29T07:31:21.826Z,29.93
2022-11-29T07:33:57.284Z,23.80
2022-11-29T07:36:35.639Z,22.57
2022-11-29T07:39:15.152Z,21.10
2022-11-29T07:41:49.415Z,20.87
2022-11-29T07:44:26.678Z,20.70
2022-11-29T07:46:55.145Z,19.13
2022-11-29T07:49:23.621Z,20.73
2022-11-29T07:51:55.486Z,21.37
2022-11-29T07:54:24.200Z,19.50
2022-11-29T07:56:52.619Z,19.97
2022-11-29T07:59:21.124Z,19.27
2022-11-29T08:01:49.603Z,19.27
2022-11-29T08:04:18.057Z,18.87
2022-11-29T08:06:46.586Z,18.80
2022-11-29T08:09:16.305Z,20.67
2022-11-29T08:11:44.850Z,20.47
2022-11-29T08:14:13.245Z,18.57
2022-11-29T08:16:41.761Z,19.17
2022-11-29T08:19:10.304Z,19.70
2022-11-29T08:21:38.776Z,19.57
2022-11-29T08:24:07.497Z,18.73
2022-11-29T08:26:37.254Z,30.23
2022-11-29T08:29:05.678Z,18.57
2022-11-29T08:31:34.126Z,19.20
2022-11-29T08:34:02.536Z,17.90
2022-11-29T08:36:30.946Z,19.07
2022-11-29T08:39:08.673Z,19.30
2022-11-29T08:41:39.295Z,20.43
2022-11-29T08:44:08.018Z,20.00
2022-11-29T08:46:54.057Z,19.57
2022-11-29T08:49:22.622Z,19.00
2022-11-29T08:51:53.197Z,19.13
2022-11-29T08:54:20.834Z,20.43
2022-11-29T08:57:23.683Z,19.20
2022-11-29T08:59:39.009Z,31.83
2022-11-29T09:02:07.785Z,20.57
2022-11-29T09:04:36.339Z,18.73
2022-11-29T09:07:04.801Z,19.00
2022-11-29T09:09:33.224Z,17.03
2022-11-29T09:12:02.987Z,18.23
2022-11-29T09:14:31.464Z,18.90
2022-11-29T09:16:59.849Z,17.50
2022-11-29T09:19:28.342Z,17.00
2022-11-29T09:21:56.899Z,17.77
2022-11-29T09:24:25.348Z,16.53
2022-11-29T09:26:53.813Z,15.83
2022-11-29T09:29:23.598Z,16.57
2022-11-29T09:31:52.100Z,17.80
2022-11-29T09:34:20.549Z,16.27
2022-11-29T09:36:48.957Z,16.43
2022-11-29T09:39:17.480Z,16.47
2022-11-29T09:42:07.657Z,16.87
2022-11-29T09:44:45.130Z,16.70
2022-11-29T09:47:23.611Z,17.03
2022-11-29T09:50:13.466Z,16.73
2022-11-29T09:52:51.540Z,21.27
2022-11-29T09:55:48.539Z,18.37
2022-11-29T09:58:20.793Z,15.20
2022-11-29T10:00:52.153Z,16.07
2022-11-29T10:03:25.579Z,16.27
2022-11-29T10:05:58.590Z,17.23
2022-11-29T10:08:33.151Z,16.97
2022-11-29T10:11:12.801Z,21.30
2022-11-29T10:13:45.708Z,20.20
2022-11-29T10:16:20.373Z,16.77
2022-11-29T10:18:52.688Z,16.53
2022-11-29T10:21:23.909Z,18.90
2022-11-29T10:23:55.430Z,18.00
2022-11-29T10:26:25.899Z,18.67
2022-11-29T10:28:58.016Z,19.07
2022-11-29T10:31:29.810Z,20.43
2022-11-29T10:34:01.623Z,30.37
2022-11-29T10:36:34.593Z,33.87
2022-11-29T10:39:09.969Z,26.63
2022-11-29T10:41:41.498Z,25.50
2022-11-29T10:44:13.868Z,24.53
2022-11-29T10:46:43.679Z,26.27
2022-11-29T10:49:14.834Z,30.43
2022-11-29T10:51:43.347Z,33.70
2022-11-29T10:54:21.705Z,29.13
2022-11-29T10:56:50.257Z,33.60
2022-11-29T10:59:23.272Z,30.63
2022-11-29T11:01:53.528Z,24.80
2022-11-29T11:04:28.045Z,25.47
2022-11-29T11:06:58.385Z,38.77
2022-11-29T11:09:31.374Z,58.80
2022-11-29T11:12:01.609Z,32.07
2022-11-29T11:14:33.031Z,29.50
2022-11-29T11:17:21.483Z,32.43
2022-11-29T11:19:57.119Z,28.50
2022-11-29T11:22:26.491Z,26.77
2022-11-29T11:25:00.436Z,29.77
2022-11-29T11:27:33.795Z,32.47
2022-11-29T11:30:03.467Z,45.57
2022-11-29T11:32:33.414Z,35.90
2022-11-29T11:35:03.181Z,31.63
2022-11-29T11:37:32.949Z,26.50
2022-11-29T11:40:19.433Z,23.90
2022-11-29T11:42:48.319Z,24.43
2022-11-29T11:45:38.762Z,24.53
2022-11-29T11:48:14.509Z,28.13
2022-11-29T11:50:45.692Z,26.37
2022-11-29T11:53:21.866Z,27.23
2022-11-29T11:55:57.271Z,25.93
2022-11-29T11:58:26.294Z,25.70
2022-11-29T12:01:03.995Z,25.00
2022-11-29T12:03:39.146Z,27.43
2022-11-29T12:06:26.094Z,29.07
2022-11-29T12:08:57.138Z,37.43
2022-11-29T12:11:26.082Z,29.27
2022-11-29T12:13:56.924Z,26.73
2022-11-29T12:16:29.683Z,27.60
2022-11-29T12:19:04.486Z,29.70
2022-11-29T12:21:36.070Z,27.10
2022-11-29T12:24:10.126Z,27.63
2022-11-29T12:26:57.602Z,28.93
2022-11-29T12:29:30.041Z,26.13
2022-11-29T12:32:08.352Z,27.10
2022-11-29T12:34:50.264Z,26.93
2022-11-29T12:37:24.077Z,26.03
2022-11-29T12:39:58.620Z,25.53
2022-11-29T12:42:37.326Z,22.80
2022-11-29T12:45:36.354Z,24.83
2022-11-29T12:48:14.696Z,25.40
2022-11-29T12:50:53.636Z,27.23
2022-11-29T12:53:41.075Z,26.43
2022-11-29T12:56:16.512Z,26.30
2022-11-29T12:58:58.472Z,25.23
2022-11-29T13:01:34.321Z,34.20
2022-11-29T13:04:08.771Z,28.73
2022-11-29T13:06:42.826Z,27.43
2022-11-29T13:09:27.323Z,26.47
2022-11-29T13:11:59.171Z,26.63
2022-11-29T13:14:48.464Z,25.67
2022-11-29T13:17:28.591Z,27.03
2022-11-29T13:19:58.666Z,24.37
2022-11-29T13:22:32.899Z,25.70
2022-11-29T13:25:05.264Z,26.57
2022-11-29T13:27:37.696Z,24.93
2022-11-29T13:30:07.833Z,26.43
2022-11-29T13:32:37.775Z,26.03
2022-11-29T13:35:09.601Z,25.90
2022-11-29T13:37:47.477Z,26.17
2022-11-29T13:40:26.363Z,26.03
2022-11-29T13:43:01.222Z,27.13
2022-11-29T13:45:35.428Z,27.23
2022-11-29T13:48:34.626Z,28.37
2022-11-29T13:51:27.993Z,29.97
2022-11-29T13:53:59.489Z,29.13
2022-11-29T13:56:32.885Z,28.33
2022-11-29T13:59:02.312Z,31.33
2022-11-29T14:01:30.792Z,31.37
2022-11-29T14:04:07.959Z,27.27
2022-11-29T14:06:37.491Z,26.73
2022-11-29T14:09:35.794Z,26.40
2022-11-29T14:12:07.499Z,26.50
2022-11-29T14:14:40.808Z,27.00
2022-11-29T14:17:36.913Z,27.43
2022-11-29T14:20:51.308Z,25.60
2022-11-29T14:23:35.969Z,26.20
2022-11-29T14:26:29.154Z,26.87
2022-11-29T14:28:59.154Z,27.90
2022-11-29T14:31:55.427Z,28.17
2022-11-29T14:34:36.115Z,34.87
2022-11-29T14:37:23.929Z,39.13
2022-11-29T14:39:54.390Z,29.80
2022-11-29T14:42:31.217Z,28.33
2022-11-29T14:45:01.585Z,28.90
2022-11-29T14:47:32.615Z,29.77
2022-11-29T14:50:04.096Z,28.40
2022-11-29T14:52:34.892Z,28.37
2022-11-29T14:55:09.877Z,29.57
2022-11-29T14:58:18.122Z,29.70
2022-11-29T15:01:10.690Z,28.07
2022-11-29T15:03:49.409Z,29.10
2022-11-29T15:06:26.403Z,28.83
2022-11-29T15:08:59.982Z,27.50
2022-11-29T15:11:53.069Z,28.27
2022-11-29T15:14:29.395Z,28.00
2022-11-29T15:17:16.365Z,28.70
2022-11-29T15:20:10.039Z,30.93
2022-11-29T15:22:46.948Z,31.43
2022-11-29T15:25:17.605Z,30.23
2022-11-29T15:27:56.462Z,29.05
2022-11-29T15:30:34.760Z,36.80
2022-11-29T15:33:05.826Z,29.77
2022-11-29T15:35:35.413Z,28.67
2022-11-29T15:38:04.349Z,28.97
2022-11-29T15:40:37.134Z,41.13
2022-11-29T15:43:16.181Z,32.20
2022-11-29T15:45:49.453Z,37.53
2022-11-29T15:48:20.288Z,41.47
2022-11-29T15:50:57.059Z,36.53
2022-11-29T15:53:29.867Z,30.27
2022-11-29T15:55:59.878Z,30.63
2022-11-29T15:58:29.545Z,29.00
2022-11-29T16:00:59.979Z,34.20
2022-11-29T16:03:30.894Z,30.10
2022-11-29T16:06:04.901Z,29.00
2022-11-29T16:08:37.600Z,28.27
2022-11-29T16:11:07.182Z,30.07
2022-11-29T16:13:40.438Z,29.60
2022-11-29T16:16:15.389Z,28.73
2022-11-29T16:18:45.948Z,28.67
2022-11-29T16:21:26.430Z,29.77
2022-11-29T16:23:55.603Z,37.80
2022-11-29T16:26:25.542Z,33.97
2022-11-29T16:28:56.387Z,31.50
2022-11-29T16:31:34.187Z,30.13
2022-11-29T16:34:08.655Z,29.03
2022-11-29T16:36:37.494Z,34.20
2022-11-29T16:39:08.117Z,36.70
2022-11-29T16:41:37.650Z,42.90
2022-11-29T16:44:07.674Z,39.60
2022-11-29T16:46:41.442Z,32.97
2022-11-29T16:49:33.506Z,28.67
2022-11-29T16:52:02.617Z,28.87
2022-11-29T16:54:34.132Z,26.97
2022-11-29T16:57:05.933Z,28.90
2022-11-29T16:59:35.371Z,27.63
2022-11-29T17:02:09.719Z,28.97
2022-11-29T17:04:38.147Z,28.20
2022-11-29T17:07:08.230Z,32.67
2022-11-29T17:09:36.814Z,34.97
2022-11-29T17:12:05.429Z,37.00
2022-11-29T17:14:34.044Z,35.03
2022-11-29T17:17:03.907Z,31.33
2022-11-29T17:19:32.501Z,30.27
2022-11-29T17:22:00.936Z,28.10
2022-11-29T17:24:29.350Z,32.20
2022-11-29T17:26:57.745Z,41.27
2022-11-29T17:29:26.559Z,36.40
2022-11-29T17:31:55.217Z,35.37
2022-11-29T17:34:25.214Z,31.77
2022-11-29T17:36:53.648Z,31.43
2022-11-29T17:39:22.684Z,33.00
2022-11-29T17:41:51.081Z,36.30
2022-11-29T17:44:19.492Z,35.57
2022-11-29T17:46:47.983Z,34.40
2022-11-29T17:49:18.662Z,31.10
2022-11-29T17:51:53.076Z,31.63
2022-11-29T17:54:22.397Z,31.00
2022-11-29T17:56:51.501Z,28.70
2022-11-29T17:59:20.500Z,29.03
2022-11-29T18:01:49.061Z,28.40
2022-11-29T18:04:18.817Z,28.33
2022-11-29T18:06:50.177Z,28.77
2022-11-29T18:09:19.615Z,31.30
2022-11-29T18:11:50.690Z,32.23
2022-11-29T18:14:21.344Z,32.97
2022-11-29T18:16:50.199Z,35.13
2022-11-29T18:19:22.134Z,32.77
2022-11-29T18:21:52.536Z,29.50
2022-11-29T18:24:20.965Z,31.70
2022-11-29T18:26:49.549Z,31.13
2022-11-29T18:29:18.224Z,32.90
2022-11-29T18:31:47.137Z,32.50
2022-11-29T18:34:16.187Z,31.47
2022-11-29T18:36:46.100Z,30.53
2022-11-29T18:39:17.505Z,30.77
2022-11-29T18:41:48.406Z,29.33
2022-11-29T18:44:18.916Z,27.03
2022-11-29T18:46:47.910Z,29.73
2022-11-29T18:49:17.926Z,32.23
2022-11-29T18:51:46.883Z,32.13
2022-11-29T18:54:17.638Z,34.90
2022-11-29T18:56:47.337Z,32.33
2022-11-29T18:59:17.809Z,31.93
2022-11-29T19:01:48.295Z,30.43
2022-11-29T19:04:18.590Z,31.33
2022-11-29T19:06:47.674Z,32.93
2022-11-29T19:09:19.327Z,31.07
2022-11-29T19:11:48.696Z,32.97
2022-11-29T19:14:17.372Z,31.93
2022-11-29T19:16:47.399Z,31.77
2022-11-29T19:19:15.805Z,33.73
2022-11-29T19:21:44.248Z,35.43
2022-11-29T19:24:15.145Z,31.93
2022-11-29T19:26:46.429Z,32.33
2022-11-29T19:29:15.575Z,33.97
2022-11-29T19:31:44.234Z,33.27
2022-11-29T19:34:12.746Z,32.33
2022-11-29T19:36:43.341Z,33.27
2022-11-29T19:39:13.153Z,34.00
2022-11-29T19:41:44.806Z,35.13
2022-11-29T19:44:13.589Z,35.67
2022-11-29T19:46:43.611Z,36.63
2022-11-29T19:49:12.308Z,38.50
2022-11-29T19:51:40.890Z,37.63
2022-11-29T19:54:10.399Z,36.43
2022-11-29T19:56:39.680Z,35.30
2022-11-29T19:59:09.989Z,39.10
2022-11-29T20:01:41.728Z,38.97
2022-11-29T20:04:11.411Z,33.80
2022-11-29T20:06:41.690Z,32.57
2022-11-29T20:09:10.286Z,31.00
2022-11-29T20:11:39.224Z,30.17
2022-11-29T20:14:09.587Z,30.87
2022-11-29T20:16:39.165Z,25.57
2022-11-29T20:19:11.965Z,29.20
2022-11-29T20:21:43.719Z,27.60
2022-11-29T20:24:12.976Z,27.83
2022-11-29T20:26:43.148Z,28.20
2022-11-29T20:29:13.558Z,28.90
2022-11-29T20:31:49.027Z,27.77
2022-11-29T20:34:20.304Z,29.47
2022-11-29T20:37:16.147Z,27.30
2022-11-29T20:39:48.041Z,27.00
2022-11-29T20:42:45.004Z,26.73
2022-11-29T20:45:16.504Z,24.77
2022-11-29T20:47:51.261Z,26.40
2022-11-29T20:50:23.595Z,25.83
2022-11-29T20:53:05.230Z,25.43
2022-11-29T20:55:34.472Z,32.33
2022-11-29T20:58:03.133Z,31.20
2022-11-29T21:00:33.097Z,32.43
2022-11-29T21:03:02.107Z,33.87
2022-11-29T21:05:30.969Z,36.20
2022-11-29T21:07:59.710Z,40.80
2022-11-29T21:10:28.593Z,43.00
2022-11-29T21:12:57.281Z,34.37
2022-11-29T21:15:26.361Z,30.03
2022-11-29T21:17:56.927Z,29.87
2022-11-29T21:20:27.030Z,32.33
2022-11-29T21:23:01.853Z,29.80
2022-11-29T21:25:39.053Z,26.10
2022-11-29T21:28:12.630Z,28.67
2022-11-29T21:30:41.950Z,28.50
2022-11-29T21:33:12.706Z,28.90
2022-11-29T21:35:41.492Z,36.93
2022-11-29T21:38:16.204Z,34.10
2022-11-29T21:40:44.675Z,30.17
2022-11-29T21:43:14.195Z,31.40
2022-11-29T21:45:42.647Z,31.97
2022-11-29T21:48:26.340Z,32.90
2022-11-29T21:50:56.387Z,30.93
2022-11-29T21:53:24.895Z,32.53
2022-11-29T21:55:57.985Z,29.37
2022-11-29T21:58:26.553Z,29.50
2022-11-29T22:00:55.282Z,26.70
2022-11-29T22:03:25.125Z,78.47
2022-11-29T22:05:53.613Z,44.03
2022-11-29T22:08:22.163Z,28.20
2022-11-29T22:10:51.124Z,15.87
2022-11-29T22:13:19.499Z,18.27
2022-11-29T22:15:47.969Z,21.03
2022-11-29T22:18:16.437Z,24.53
2022-11-29T22:20:49.652Z,24.70
2022-11-29T22:23:18.214Z,23.17
2022-11-29T22:25:46.729Z,22.53
2022-11-29T22:28:15.174Z,21.50
2022-11-29T22:30:43.580Z,24.67
2022-11-29T22:33:13.541Z,26.40
2022-11-29T22:35:44.316Z,25.53
2022-11-29T22:38:14.113Z,26.77
2022-11-29T22:40:42.553Z,26.83
2022-11-29T22:43:10.955Z,27.50
2022-11-29T22:45:39.373Z,26.30
2022-11-29T22:48:07.960Z,27.60
2022-11-29T22:50:36.679Z,28.07
2022-11-29T22:53:05.326Z,29.20
2022-11-29T22:55:35.520Z,28.77
2022-11-29T22:58:04.522Z,27.70
2022-11-29T23:00:42.269Z,40.57
2022-11-29T23:03:11.042Z,45.73
2022-11-29T23:05:40.366Z,35.13
2022-11-29T23:08:09.288Z,28.90
2022-11-29T23:10:39.656Z,27.37
2022-11-29T23:13:08.501Z,24.87
2022-11-29T23:15:37.279Z,25.23
2022-11-29T23:18:06.532Z,24.83
2022-11-29T23:20:35.150Z,24.47
2022-11-29T23:23:03.639Z,24.10
2022-11-29T23:25:32.088Z,23.03
2022-11-29T23:28:01.879Z,23.40
2022-11-29T23:30:30.429Z,24.60
2022-11-29T23:32:58.886Z,23.07
2022-11-29T23:35:27.510Z,28.07
2022-11-29T23:37:55.903Z,28.93
2022-11-29T23:40:24.297Z,27.97
2022-11-29T23:42:52.981Z,25.03
2022-11-29T23:45:22.726Z,24.63
2022-11-29T23:47:51.199Z,24.77
2022-11-29T23:50:19.610Z,24.53
2022-11-29T23:52:53.827Z,24.20
2022-11-29T23:55:22.373Z,23.80
2022-11-29T23:57:51.124Z,23.80
